Time Latitude Longitude Accuracy (66% radius in meters) Altitude (meters) Speed (km/hour) Bearing (degrees) Battery (%) GPS flag
09:12:14 55.944059 38.068135 6 182.67092303775 0.31974938511848 327.93545532227 79 1 delete
09:12:02 55.944054 38.068169 4 183.82273388537 0.25761491060257 281.55307006836 79 1 delete
09:11:50 55.944058 38.068152 6 185.69831853887 0.20519396662712 96.756568908691 79 1 delete
09:11:38 55.944056 38.068152 12 187.48420635963 0.73858344554901 57.951858520508 79 1 delete
09:11:29 55.944030 38.068054 8 188.42265375438 0.063266672194004 271.25329589844 79 1 delete
09:11:20 55.944021 38.067972 12 189.55321839117 2.147472858429 59.303253173828 79 1 delete
09:11:17 55.943984 38.067888 8 189.98517804456 2.1994700431824 66.271911621094 79 1 delete
09:11:14 55.943961 38.067815 12 190.44370915565 2.1072323322296 57.894393920898 79 1 delete
09:11:11 55.943927 38.067693 8 190.83456403058 1.5714217424393 82.149688720703 79 1 delete
09:11:05 55.943871 38.067539 8 192.10610118027 2.6485848426819 68.311134338379 79 1 delete
09:11:02 55.943797 38.067392 8 192.56414052299 2.8620312213898 59.91480255127 79 1 delete
09:10:59 55.943710 38.067247 8 193.01799925423 2.7822904586792 353.42559814453 79 1 delete
09:10:56 55.943614 38.067174 8 193.50631095719 2.4817788600922 28.694887161255 79 1 delete
09:10:53 55.943514 38.066980 8 193.64930394929 2.090594291687 39.974494934082 79 1 delete
09:10:50 55.943439 38.066865 8 193.57665675614 1.989297747612 35.731502532959 79 1 delete
09:10:47 55.943402 38.066792 12 193.30085476003 2.32679271698 129.05938720703 79 1 delete
09:10:44 55.943379 38.066686 8 193.14935137043 2.6164593696594 52.695331573486 79 1 delete
09:10:41 55.943326 38.066548 8 193.15128719447 2.5597910881042 46.539157867432 79 1 delete
09:10:38 55.943227 38.066371 8 193.01556481164 2.3838675022125 62.254035949707 79 1 delete
09:10:35 55.943127 38.066269 8 192.98877701418 2.2874641418457 35.645111083984 79 1 delete
09:10:32 55.943025 38.066222 6 193.00856219448 2.3058609962463 0.10034753382206 79 1 delete
09:10:29 55.942933 38.066231 8 193.22262679574 2.4572496414185 32.336181640625 79 1 delete
09:10:26 55.942869 38.066300 12 193.65120938487 2.6831994056702 291.37728881836 79 1 delete
09:10:23 55.942796 38.066453 8 194.18399949015 2.6026432514191 319.23361206055 79 1 delete
09:10:20 55.942698 38.066569 6 194.73980509359 2.5022938251495 317.5280456543 79 1 delete
09:10:17 55.942619 38.066636 8 194.98497394422 2.5027885437012 12.092329978943 79 1 delete
09:10:14 55.942544 38.066598 8 195.13256941167 2.4816386699677 334.21380615234 79 1 delete
09:10:11 55.942470 38.066597 8 195.60146144679 2.5177626609802 349.69128417969 79 1 delete
09:10:08 55.942391 38.066529 8 196.32570048362 2.7082531452179 44.536499023438 79 1 delete
09:10:05 55.942261 38.066417 8 196.82820494992 1.5320127010345 3.8351731300354 79 1 delete
09:10:02 55.942179 38.066382 8 197.20358289375 1.4642686843872 347.51321411133 79 1 delete
09:09:59 55.942075 38.066338 8 197.36313501368 2.8297529220581 349.30523681641 79 1 delete
09:09:56 55.942039 38.066346 8 197.61681132597 3.3381199836731 357.28759765625 79 1 delete
09:09:53 55.941948 38.066283 8 197.88402771264 3.5371372699738 359.99261474609 79 1 delete
09:09:50 55.941878 38.066204 8 197.98800460703 3.6324026584625 32.687992095947 79 1 delete
09:09:47 55.941813 38.066066 12 198.41751121054 3.6026391983032 5.2539281845093 79 1 delete
09:09:44 55.941776 38.065979 8 198.07282568317 3.8337395191193 74.889785766602 79 1 delete
09:09:41 55.941781 38.065811 12 197.35950013877 3.9050486087799 101.29582214355 79 1 delete
09:09:38 55.941816 38.065584 12 193.22635998182 4.0277118682861 128.80557250977 79 1 delete
09:09:35 55.941884 38.065447 8 193.02233683705 4.1071801185608 116.15544891357 79 1 delete
09:09:32 55.941955 38.065245 8 192.06530442225 4.0042815208435 141.40278625488 79 1 delete
09:09:29 55.942045 38.065052 8 192.08206932684 3.9219872951508 122.9575881958 79 1 delete
09:09:26 55.942102 38.064836 8 192.46102862816 3.8678343296051 117.05516815186 79 1 delete
09:09:23 55.942133 38.064585 12 191.48469823091 3.7246189117432 109.28659057617 79 1 delete
09:09:20 55.942170 38.064300 6 191.73868342138 3.5616745948792 120.37004089355 79 1 delete
09:09:17 55.942209 38.064036 8 190.68402656636 3.5521087646484 108.44111633301 79 1 delete
09:09:14 55.942251 38.063823 8 190.37625736592 3.6646440029144 114.50193786621 79 1 delete
09:09:11 55.942265 38.063628 12 190.25261195967 3.7499833106995 100.81915283203 79 1 delete
09:09:08 55.942278 38.063385 12 190.62997338812 3.7093164920807 97.220802307129 79 1 delete
09:09:05 55.942280 38.063121 8 189.27115079994 3.6143207550049 94.242263793945 79 1 delete